createdAt,value
2017-03-21T00:01:00.707Z,29.76
2017-03-21T00:02:09.712Z,29.47
2017-03-21T00:03:18.757Z,29.57
2017-03-21T00:04:28.443Z,29.76
2017-03-21T00:05:37.830Z,29.66
2017-03-21T00:06:46.902Z,29.57
2017-03-21T00:07:55.667Z,29.66
2017-03-21T00:09:05.050Z,29.66
2017-03-21T00:10:14.736Z,29.86
2017-03-21T00:11:24.027Z,29.76
2017-03-21T00:12:33.055Z,29.76
2017-03-21T00:13:42.710Z,29.66
2017-03-21T00:14:51.754Z,29.66
2017-03-21T00:16:01.447Z,29.76
2017-03-21T00:17:10.820Z,29.66
2017-03-21T00:18:20.497Z,29.95
2017-03-21T00:19:29.874Z,29.66
2017-03-21T00:20:38.944Z,29.86
2017-03-21T00:21:47.683Z,29.95
2017-03-21T00:22:57.015Z,29.76
2017-03-21T00:24:06.980Z,30.05
2017-03-21T00:25:16.290Z,29.86
2017-03-21T00:26:25.312Z,29.57
2017-03-21T00:27:34.383Z,29.66
2017-03-21T00:28:43.767Z,29.57
2017-03-21T00:29:53.150Z,29.57
2017-03-21T00:31:02.222Z,29.57
2017-03-21T00:32:11.532Z,29.66
2017-03-21T00:33:20.602Z,29.95
2017-03-21T00:34:30.559Z,29.47
2017-03-21T00:35:39.283Z,29.47
2017-03-21T00:36:48.354Z,30.05
2017-03-21T00:37:58.052Z,29.76
2017-03-21T00:39:07.155Z,30.15
2017-03-21T00:40:17.433Z,30.05
2017-03-21T00:41:26.765Z,30.15
2017-03-21T00:42:35.839Z,29.95
2017-03-21T00:43:45.217Z,29.95
2017-03-21T00:44:54.879Z,30.24
2017-03-21T00:46:04.512Z,30.15
2017-03-21T00:47:13.282Z,29.95
2017-03-21T00:48:22.970Z,30.05
2017-03-21T00:49:32.352Z,30.15
2017-03-21T00:50:41.727Z,30.15
2017-03-21T00:51:50.493Z,29.95
2017-03-21T00:52:59.562Z,30.24
2017-03-21T00:54:09.551Z,29.86
2017-03-21T00:55:18.633Z,30.15
2017-03-21T00:56:27.679Z,29.95
2017-03-21T00:57:37.005Z,30.15
2017-03-21T00:58:46.362Z,29.86
2017-03-21T00:59:55.744Z,30.15
2017-03-21T01:01:04.810Z,29.86
2017-03-21T01:02:13.869Z,30.24
2017-03-21T01:03:22.934Z,30.34
2017-03-21T01:04:32.207Z,30.34
2017-03-21T01:05:41.577Z,30.43
2017-03-21T01:06:50.649Z,30.24
2017-03-21T01:07:59.407Z,30.43
2017-03-21T01:09:09.084Z,30.43
2017-03-21T01:10:18.465Z,30.15
2017-03-21T01:11:27.218Z,29.86
2017-03-21T01:12:36.284Z,30.24
2017-03-21T01:13:45.971Z,30.53
2017-03-21T01:14:55.555Z,30.53
2017-03-21T01:16:04.599Z,30.13
2017-03-21T01:17:13.318Z,30.24
2017-03-21T01:18:23.300Z,30.13
2017-03-21T01:19:33.591Z,30.63
2017-03-21T01:20:42.959Z,30.52
2017-03-21T01:21:51.694Z,30.24
2017-03-21T01:23:00.729Z,30.52
2017-03-21T01:24:10.104Z,30.22
2017-03-21T01:25:19.792Z,30.32
2017-03-21T01:26:29.171Z,30.32
2017-03-21T01:27:38.541Z,30.15
2017-03-21T01:28:48.230Z,30.22
2017-03-21T01:29:58.217Z,30.22
2017-03-21T01:31:07.254Z,30.34
2017-03-21T01:32:15.980Z,30.32
2017-03-21T01:33:25.654Z,30.22
2017-03-21T01:34:34.722Z,30.22
2017-03-21T01:35:43.454Z,30.13
2017-03-21T01:36:52.218Z,30.22
2017-03-21T01:38:00.978Z,30.32
2017-03-21T01:39:10.027Z,30.32
2017-03-21T01:40:19.064Z,30.42
2017-03-21T01:41:28.737Z,30.52
2017-03-21T01:42:37.502Z,30.42
2017-03-21T01:43:47.196Z,30.32
2017-03-21T01:44:57.479Z,30.42
2017-03-21T01:46:06.845Z,30.52
2017-03-21T01:47:15.912Z,30.61
2017-03-21T01:48:25.033Z,30.32
2017-03-21T01:49:35.031Z,30.61
2017-03-21T01:50:44.394Z,30.71
2017-03-21T01:51:53.421Z,30.32
2017-03-21T01:53:03.305Z,30.32
2017-03-21T01:54:13.609Z,30.42
2017-03-21T01:55:22.696Z,30.71
2017-03-21T01:56:31.765Z,30.61
2017-03-21T01:57:41.146Z,30.61
2017-03-21T01:58:50.500Z,30.61
2017-03-21T02:00:00.456Z,30.71
2017-03-21T02:01:09.228Z,30.61
2017-03-21T02:02:18.006Z,30.61
2017-03-21T02:03:27.979Z,30.61
2017-03-21T02:04:38.182Z,30.61
2017-03-21T02:05:46.952Z,30.8
2017-03-21T02:06:56.025Z,30.61
2017-03-21T02:08:05.398Z,30.42
2017-03-21T02:09:15.430Z,30.52
2017-03-21T02:10:25.110Z,30.61
2017-03-21T02:11:34.794Z,30.61
2017-03-21T02:12:44.163Z,30.71
2017-03-21T02:13:54.443Z,30.71
2017-03-21T02:15:04.424Z,31
2017-03-21T02:16:13.501Z,31.09
2017-03-21T02:17:22.574Z,31
2017-03-21T02:18:31.628Z,30.71
2017-03-21T02:19:41.272Z,30.9
2017-03-21T02:20:50.343Z,30.61
2017-03-21T02:21:59.416Z,31
2017-03-21T02:23:08.485Z,30.61
2017-03-21T02:24:17.845Z,30.61
2017-03-21T02:25:27.486Z,30.61
2017-03-21T02:26:36.255Z,30.71
2017-03-21T02:27:45.324Z,30.71
2017-03-21T02:28:55.015Z,30.61
2017-03-21T02:30:04.368Z,30.52
2017-03-21T02:31:13.400Z,30.42
2017-03-21T02:32:22.712Z,30.42
2017-03-21T02:33:32.084Z,30.61
2017-03-21T02:34:41.152Z,30.61
2017-03-21T02:35:50.525Z,31.09
2017-03-21T02:36:59.591Z,30.52
2017-03-21T02:38:09.273Z,30.42
2017-03-21T02:39:19.259Z,30.52
2017-03-21T02:40:29.146Z,30.52
2017-03-21T02:41:39.025Z,31.19
2017-03-21T02:42:47.792Z,30.52
2017-03-21T02:43:57.760Z,30.61
2017-03-21T02:45:06.487Z,30.42
2017-03-21T02:46:15.865Z,30.42
2017-03-21T02:47:25.173Z,30.42
2017-03-21T02:48:34.524Z,30.52
2017-03-21T02:49:43.572Z,30.42
2017-03-21T02:50:52.607Z,30.32
2017-03-21T02:52:02.248Z,30.52
2017-03-21T02:53:11.529Z,30.42
2017-03-21T02:54:21.519Z,30.52
2017-03-21T02:55:30.889Z,31.29
2017-03-21T02:56:39.628Z,31.09
2017-03-21T02:57:49.239Z,31.09
2017-03-21T02:58:58.882Z,31.29
2017-03-21T03:00:08.238Z,30.9
2017-03-21T03:01:17.901Z,30.42
2017-03-21T03:02:27.256Z,30.42
2017-03-21T03:03:36.478Z,31
2017-03-21T03:04:46.451Z,31
2017-03-21T03:05:56.423Z,30.32
2017-03-21T03:07:05.195Z,30.9
2017-03-21T03:08:15.136Z,30.42
2017-03-21T03:09:24.831Z,31.09
2017-03-21T03:10:34.219Z,30.42
2017-03-21T03:11:42.993Z,30.32
2017-03-21T03:12:52.068Z,30.9
2017-03-21T03:14:01.756Z,30.8
2017-03-21T03:15:11.449Z,30.8
2017-03-21T03:16:21.021Z,30.8
2017-03-21T03:17:30.696Z,30.52
2017-03-21T03:18:40.690Z,30.8
2017-03-21T03:19:50.067Z,30.61
2017-03-21T03:20:59.745Z,30.8
2017-03-21T03:22:08.516Z,30.8
2017-03-21T03:23:17.567Z,30.61
2017-03-21T03:24:27.211Z,30.8
2017-03-21T03:25:36.589Z,30.8
2017-03-21T03:26:45.958Z,30.8
2017-03-21T03:27:55.342Z,30.71
2017-03-21T03:29:05.316Z,30.8
2017-03-21T03:30:14.670Z,30.71
2017-03-21T03:31:23.701Z,30.71
2017-03-21T03:32:33.397Z,30.8
2017-03-21T03:33:43.388Z,30.8
2017-03-21T03:34:52.445Z,30.52
2017-03-21T03:36:01.775Z,30.8
2017-03-21T03:37:11.160Z,30.61
2017-03-21T03:38:20.536Z,30.8
2017-03-21T03:39:30.221Z,30.9
2017-03-21T03:40:46.760Z,30.71
2017-03-21T03:41:56.441Z,30.61
2017-03-21T03:43:05.834Z,30.61
2017-03-21T03:44:15.827Z,30.71
2017-03-21T03:45:25.210Z,30.71
2017-03-21T03:46:34.890Z,30.71
2017-03-21T03:47:43.967Z,30.9
2017-03-21T03:48:53.340Z,30.8
2017-03-21T03:50:02.409Z,30.6
2017-03-21T03:51:11.164Z,30.6
2017-03-21T03:52:20.232Z,30.61
2017-03-21T03:53:29.604Z,30.8
2017-03-21T03:54:38.681Z,30.8
2017-03-21T03:55:48.039Z,30.98
2017-03-21T03:56:57.116Z,31
2017-03-21T03:58:06.494Z,30.79
2017-03-21T03:59:16.484Z,30.8
2017-03-21T04:00:25.864Z,30.6
2017-03-21T04:01:34.639Z,30.98
2017-03-21T04:02:43.935Z,30.8
2017-03-21T04:03:53.923Z,31.27
2017-03-21T04:05:03.579Z,30.98
2017-03-21T04:06:12.302Z,30.98
2017-03-21T04:07:21.374Z,30.8
2017-03-21T04:08:30.439Z,30.98
2017-03-21T04:09:40.418Z,30.98
2017-03-21T04:10:50.699Z,31.08
2017-03-21T04:11:59.466Z,31.08
2017-03-21T04:13:09.143Z,31.18
2017-03-21T04:14:19.120Z,31
2017-03-21T04:15:28.770Z,31.29
2017-03-21T04:16:37.484Z,31
2017-03-21T04:17:46.851Z,30.98
2017-03-21T04:18:56.840Z,30.98
2017-03-21T04:20:06.173Z,30.88
2017-03-21T04:21:15.536Z,30.98
2017-03-21T04:22:24.871Z,30.98
2017-03-21T04:23:33.876Z,31.37
2017-03-21T04:24:43.220Z,31.27
2017-03-21T04:25:52.292Z,30.98
2017-03-21T04:27:01.655Z,30.98
2017-03-21T04:28:10.734Z,30.79
2017-03-21T04:29:20.619Z,31.46
2017-03-21T04:30:29.680Z,31.18
2017-03-21T04:31:39.342Z,31.37
2017-03-21T04:32:48.399Z,31.37
2017-03-21T04:33:57.468Z,31
2017-03-21T04:35:07.458Z,31.08
2017-03-21T04:36:16.518Z,30.9
2017-03-21T04:37:25.628Z,30.88
2017-03-21T04:38:34.737Z,30.98
2017-03-21T04:39:43.802Z,30.88
2017-03-21T04:40:53.476Z,31
2017-03-21T04:42:02.537Z,30.79
2017-03-21T04:43:11.907Z,31.09
2017-03-21T04:44:21.322Z,30.88
2017-03-21T04:45:30.997Z,30.8
2017-03-21T04:46:39.729Z,30.9
2017-03-21T04:47:48.794Z,30.79
2017-03-21T04:48:57.859Z,30.9
2017-03-21T04:50:06.934Z,30.88
2017-03-21T04:51:16.303Z,30.6
2017-03-21T04:52:25.370Z,30.88
2017-03-21T04:53:34.432Z,30.79
2017-03-21T04:54:43.814Z,30.88
2017-03-21T04:55:53.169Z,30.98
2017-03-21T04:57:02.212Z,30.98
2017-03-21T04:58:11.843Z,30.79
2017-03-21T04:59:22.040Z,30.79
2017-03-21T05:00:31.713Z,30.71
2017-03-21T05:01:41.087Z,30.79
2017-03-21T05:02:49.860Z,30.79
2017-03-21T05:03:59.238Z,30.61
2017-03-21T05:05:08.919Z,30.8
2017-03-21T05:06:17.678Z,30.52
2017-03-21T05:07:27.043Z,30.8
2017-03-21T05:08:36.400Z,30.69
2017-03-21T05:09:45.168Z,30.71
2017-03-21T05:10:55.153Z,30.71
2017-03-21T05:12:04.503Z,30.42
2017-03-21T05:13:13.837Z,30.8
2017-03-21T05:14:23.179Z,30.69
2017-03-21T05:15:32.510Z,30.71
2017-03-21T05:16:41.266Z,30.8
2017-03-21T05:17:50.332Z,30.42
2017-03-21T05:19:00.322Z,30.42
2017-03-21T05:20:09.385Z,30.42
2017-03-21T05:21:18.450Z,31.29
2017-03-21T05:22:28.030Z,30.52
2017-03-21T05:23:37.371Z,30.52
2017-03-21T05:24:47.304Z,31.09
2017-03-21T05:25:57.585Z,31
2017-03-21T05:27:06.643Z,30.52
2017-03-21T05:28:15.383Z,30.61
2017-03-21T05:29:24.416Z,30.61
2017-03-21T05:30:34.072Z,30.71
2017-03-21T05:31:43.097Z,31
2017-03-21T05:32:51.862Z,30.71
2017-03-21T05:34:01.240Z,30.71
2017-03-21T05:35:10.653Z,30.52
2017-03-21T05:36:19.423Z,30.61
2017-03-21T05:37:28.182Z,30.61
2017-03-21T05:38:38.132Z,30.52
2017-03-21T05:39:47.774Z,30.32
2017-03-21T05:40:57.758Z,30.42
2017-03-21T05:42:06.522Z,30.42
2017-03-21T05:43:16.198Z,30.71
2017-03-21T05:44:25.916Z,30.71
2017-03-21T05:45:35.598Z,30.42
2017-03-21T05:46:45.275Z,30.52
2017-03-21T05:47:54.507Z,30.42
2017-03-21T05:49:03.238Z,30.42
2017-03-21T05:50:12.940Z,30.42
2017-03-21T05:51:22.517Z,30.42
2017-03-21T05:52:31.544Z,30.42
2017-03-21T05:53:41.215Z,30.42
2017-03-21T05:54:50.872Z,30.61
2017-03-21T05:56:00.508Z,30.42
2017-03-21T05:57:09.274Z,30.63
2017-03-21T05:58:18.538Z,30.32
2017-03-21T05:59:28.515Z,30.24
2017-03-21T06:00:37.888Z,30.32
2017-03-21T06:01:46.951Z,30.24
2017-03-21T06:02:56.329Z,30.22
2017-03-21T06:04:05.669Z,30.43
2017-03-21T06:05:14.998Z,30.53
2017-03-21T06:06:24.034Z,29.95
2017-03-21T06:07:32.732Z,29.86
2017-03-21T06:08:42.062Z,29.86
2017-03-21T06:09:51.798Z,29.76
2017-03-21T06:11:01.495Z,29.76
2017-03-21T06:12:10.184Z,29.86
2017-03-21T06:13:20.113Z,30.24
2017-03-21T06:14:29.535Z,29.95
2017-03-21T06:15:38.602Z,29.95
2017-03-21T06:16:47.994Z,29.86
2017-03-21T06:17:56.713Z,30.05
2017-03-21T06:19:05.757Z,29.95
2017-03-21T06:20:14.481Z,30.05
2017-03-21T06:21:23.541Z,30.05
2017-03-21T06:22:32.579Z,30.15
2017-03-21T06:23:42.183Z,29.86
2017-03-21T06:24:51.218Z,29.95
2017-03-21T06:26:00.593Z,29.95
2017-03-21T06:27:09.663Z,30.15
2017-03-21T06:28:18.428Z,30.05
2017-03-21T06:29:28.684Z,29.95
2017-03-21T06:30:37.734Z,29.95
2017-03-21T06:31:47.898Z,30.05
2017-03-21T06:32:57.006Z,30.24
2017-03-21T06:34:05.775Z,30.43
2017-03-21T06:35:15.145Z,30.43
2017-03-21T06:36:24.903Z,30.34
2017-03-21T06:37:34.232Z,29.76
2017-03-21T06:38:44.016Z,29.76
2017-03-21T06:39:54.384Z,30.53
2017-03-21T06:41:03.846Z,30.55
2017-03-21T06:42:12.882Z,29.76
2017-03-21T06:43:21.910Z,30.24
2017-03-21T06:44:30.988Z,30.15
2017-03-21T06:45:40.666Z,30.07
2017-03-21T06:46:49.729Z,29.95
2017-03-21T06:47:58.785Z,30.07
2017-03-21T06:49:07.828Z,30.07
2017-03-21T06:50:16.861Z,30.07
2017-03-21T06:51:25.934Z,29.86
2017-03-21T06:52:35.014Z,29.58
2017-03-21T06:53:45.306Z,29.58
2017-03-21T06:54:54.371Z,29.87
2017-03-21T06:56:03.746Z,29.68
2017-03-21T06:57:12.813Z,29.87
2017-03-21T06:58:22.439Z,29.77
2017-03-21T06:59:32.425Z,29.58
2017-03-21T07:00:41.179Z,29.58
2017-03-21T07:01:50.254Z,29.87
2017-03-21T07:02:59.940Z,29.68
2017-03-21T07:04:09.625Z,29.49
2017-03-21T07:05:19.005Z,29.77
2017-03-21T07:06:28.369Z,29.68
2017-03-21T07:07:37.447Z,29.1
2017-03-21T07:08:47.133Z,29.58
2017-03-21T07:09:55.906Z,29.2
2017-03-21T07:11:05.277Z,29.39
2017-03-21T07:12:14.046Z,29.39
2017-03-21T07:13:23.473Z,29.29
2017-03-21T07:14:32.745Z,29.39
2017-03-21T07:15:41.482Z,29.49
2017-03-21T07:16:50.246Z,29.58
2017-03-21T07:17:59.305Z,29.68
2017-03-21T07:19:08.676Z,29
2017-03-21T07:20:18.074Z,29.58
2017-03-21T07:21:27.145Z,29.49
2017-03-21T07:22:35.910Z,29.39
2017-03-21T07:23:45.289Z,29.39
2017-03-21T07:24:55.573Z,29
2017-03-21T07:26:04.953Z,29.49
2017-03-21T07:27:14.021Z,29.49
2017-03-21T07:28:23.081Z,29.39
2017-03-21T07:29:31.843Z,28.63
2017-03-21T07:30:40.610Z,29.31
2017-03-21T07:31:49.683Z,29.21
2017-03-21T07:32:59.028Z,29.11
2017-03-21T07:34:08.066Z,29.11
2017-03-21T07:35:17.742Z,28.53
2017-03-21T07:36:27.104Z,28.44
2017-03-21T07:37:36.171Z,28.63
2017-03-21T07:38:45.827Z,28.73
2017-03-21T07:39:55.164Z,28.73
2017-03-21T07:41:04.528Z,29.02
2017-03-21T07:42:13.260Z,28.53
2017-03-21T07:43:23.249Z,28.63
2017-03-21T07:44:33.232Z,28.45
2017-03-21T07:45:42.000Z,28.74
2017-03-21T07:46:50.732Z,28.36
2017-03-21T07:48:00.098Z,28.07
2017-03-21T07:49:09.473Z,28.07
2017-03-21T07:50:19.467Z,27.97
2017-03-21T07:51:28.478Z,27.87
2017-03-21T07:52:37.542Z,27.6
2017-03-21T07:53:47.532Z,27.5
2017-03-21T07:54:57.185Z,27.4
2017-03-21T07:56:06.521Z,27.4
2017-03-21T07:57:15.568Z,27.4
2017-03-21T07:58:25.505Z,27.31
2017-03-21T07:59:34.883Z,27.22
2017-03-21T08:00:43.954Z,27.22
2017-03-21T08:01:52.721Z,27.22
2017-03-21T08:03:01.798Z,27.4
2017-03-21T08:04:10.536Z,27.4
2017-03-21T08:05:19.894Z,27.4
2017-03-21T08:06:28.966Z,27.4
2017-03-21T08:07:37.708Z,27.4
2017-03-21T08:08:47.928Z,27.4
2017-03-21T08:09:57.838Z,27.4
2017-03-21T08:11:07.137Z,27.5
2017-03-21T08:12:16.168Z,27.7
2017-03-21T08:13:25.852Z,27.5
2017-03-21T08:14:36.107Z,27.8
2017-03-21T08:15:44.832Z,27.6
2017-03-21T08:16:53.904Z,27.8
2017-03-21T08:18:02.663Z,27.87
2017-03-21T08:19:12.347Z,27.59
2017-03-21T08:20:21.421Z,27.68
2017-03-21T08:21:30.491Z,27.68
2017-03-21T08:22:39.864Z,27.68
2017-03-21T08:23:49.851Z,27.68
2017-03-21T08:24:59.881Z,27.68
2017-03-21T08:26:09.264Z,27.78
2017-03-21T08:27:18.001Z,27.68
2017-03-21T08:28:27.986Z,27.68
2017-03-21T08:29:37.665Z,27.78
2017-03-21T08:30:47.043Z,27.68
2017-03-21T08:31:55.800Z,27.87
2017-03-21T08:33:04.867Z,27.78
2017-03-21T08:34:13.627Z,27.78
2017-03-21T08:35:22.684Z,27.87
2017-03-21T08:36:31.454Z,27.87
2017-03-21T08:37:40.216Z,28.07
2017-03-21T08:38:49.294Z,28.07
2017-03-21T08:39:59.224Z,28.07
2017-03-21T08:41:08.290Z,28.07
2017-03-21T08:42:17.051Z,28.16
2017-03-21T08:43:26.418Z,28.16
2017-03-21T08:44:35.478Z,28.45
2017-03-21T08:45:44.250Z,28.64
2017-03-21T08:46:53.018Z,28.36
2017-03-21T08:48:01.752Z,28.55
2017-03-21T08:49:10.473Z,28.16
2017-03-21T08:50:19.534Z,28.26
2017-03-21T08:51:28.575Z,28.16
2017-03-21T08:52:37.288Z,28.26
2017-03-21T08:53:46.061Z,28.16
2017-03-21T08:54:55.142Z,27.97
2017-03-21T08:56:03.898Z,28.07
2017-03-21T08:57:12.648Z,28.16
2017-03-21T08:58:21.371Z,28.26
2017-03-21T08:59:30.715Z,28.16
2017-03-21T09:00:39.438Z,28.26
2017-03-21T09:01:48.518Z,28.16
2017-03-21T09:02:57.286Z,28.26
2017-03-21T09:04:06.348Z,28.55
2017-03-21T09:05:15.115Z,28.07
2017-03-21T09:06:23.877Z,28.55
2017-03-21T09:07:32.920Z,28.45
2017-03-21T09:08:41.964Z,28.36
2017-03-21T09:09:51.310Z,28.55
2017-03-21T09:11:00.046Z,28.16
2017-03-21T09:12:09.415Z,28.55
2017-03-21T09:13:18.181Z,28.36
2017-03-21T09:14:27.229Z,28.73
2017-03-21T09:15:36.232Z,28.74
2017-03-21T09:16:44.951Z,28.55
2017-03-21T09:17:54.017Z,28.45
2017-03-21T09:19:02.755Z,28.07
2017-03-21T09:20:11.770Z,28.36
2017-03-21T09:21:20.528Z,28.26
2017-03-21T09:22:29.485Z,27.97
2017-03-21T09:23:38.260Z,28.07
2017-03-21T09:24:47.938Z,28.16
2017-03-21T09:25:56.707Z,28.45
2017-03-21T09:27:05.748Z,28.36
2017-03-21T09:28:14.771Z,28.36
2017-03-21T09:29:24.139Z,28.16
2017-03-21T09:30:32.905Z,28.26
2017-03-21T09:31:41.671Z,28.55
2017-03-21T09:32:50.632Z,28.16
2017-03-21T09:33:59.706Z,28.36
2017-03-21T09:35:08.451Z,28.07
2017-03-21T09:36:17.474Z,28.55
2017-03-21T09:37:26.548Z,28.26
2017-03-21T09:38:35.309Z,28.36
2017-03-21T09:39:44.682Z,28.07
2017-03-21T09:40:54.033Z,27.8
2017-03-21T09:42:02.736Z,27.98
2017-03-21T09:43:11.695Z,27.89
2017-03-21T09:44:20.766Z,27.5
2017-03-21T09:45:30.135Z,27.7
2017-03-21T09:46:38.886Z,27.4
2017-03-21T09:47:47.946Z,26.92
2017-03-21T09:48:56.993Z,26.93
2017-03-21T09:50:05.767Z,26.65
2017-03-21T09:51:14.836Z,26.65
2017-03-21T09:52:23.589Z,26.65
2017-03-21T09:53:32.588Z,26.75
2017-03-21T09:54:41.665Z,26.75
2017-03-21T09:55:50.433Z,26.84
2017-03-21T09:56:59.170Z,26.93
2017-03-21T09:58:07.891Z,26.75
2017-03-21T09:59:16.969Z,27.03
2017-03-21T10:00:25.734Z,26.93
2017-03-21T10:01:34.493Z,27.22
2017-03-21T10:02:43.565Z,27.4
2017-03-21T10:03:52.604Z,27.12
2017-03-21T10:05:02.234Z,27.4
2017-03-21T10:06:10.997Z,27.5
2017-03-21T10:07:19.751Z,27.31
2017-03-21T10:08:28.781Z,27.6
2017-03-21T10:09:38.158Z,27.5
2017-03-21T10:10:47.131Z,27.5
2017-03-21T10:11:56.204Z,27.6
2017-03-21T10:13:04.947Z,27.7
2017-03-21T10:14:13.673Z,27.7
2017-03-21T10:15:22.719Z,27.8
2017-03-21T10:16:31.891Z,27.7
2017-03-21T10:17:40.653Z,27.7
2017-03-21T10:18:49.407Z,27.7
2017-03-21T10:19:58.481Z,27.8
2017-03-21T10:21:07.466Z,27.98
2017-03-21T10:22:16.196Z,27.87
2017-03-21T10:23:25.255Z,27.97
2017-03-21T10:24:34.624Z,27.68
2017-03-21T10:25:43.400Z,27.68
2017-03-21T10:26:52.163Z,28.07
2017-03-21T10:28:00.923Z,28.07
2017-03-21T10:29:10.006Z,27.97
2017-03-21T10:30:18.775Z,27.97
2017-03-21T10:31:27.845Z,27.97
2017-03-21T10:32:36.591Z,27.97
2017-03-21T10:33:45.654Z,27.97
2017-03-21T10:34:54.464Z,28.07
2017-03-21T10:36:03.848Z,28.36
2017-03-21T10:37:12.617Z,28.18
2017-03-21T10:38:21.692Z,28.07
2017-03-21T10:39:31.029Z,28.08
2017-03-21T10:40:39.751Z,27.7
2017-03-21T10:41:48.510Z,27.7
2017-03-21T10:42:57.274Z,27.89
2017-03-21T10:44:06.341Z,27.31
2017-03-21T10:45:15.393Z,27.22
2017-03-21T10:46:24.110Z,27.33
2017-03-21T10:47:32.869Z,27.22
2017-03-21T10:48:41.612Z,27.22
2017-03-21T10:49:50.635Z,27.33
2017-03-21T10:50:59.369Z,27.31
2017-03-21T10:52:08.086Z,27.4
2017-03-21T10:53:16.852Z,27.4
2017-03-21T10:54:25.764Z,27.5
2017-03-21T10:55:34.527Z,27.4
2017-03-21T10:56:43.261Z,27.7
2017-03-21T10:57:51.986Z,27.7
2017-03-21T10:59:00.750Z,27.8
2017-03-21T11:00:09.507Z,27.89
2017-03-21T11:01:18.268Z,27.8
2017-03-21T11:02:27.345Z,27.98
2017-03-21T11:03:36.123Z,27.6
2017-03-21T11:04:45.188Z,27.89
2017-03-21T11:05:53.940Z,27.8
2017-03-21T11:07:02.704Z,27.7
2017-03-21T11:08:11.769Z,27.89
2017-03-21T11:09:20.545Z,27.8
2017-03-21T11:10:29.302Z,27.7
2017-03-21T11:11:38.024Z,27.6
2017-03-21T11:12:46.786Z,27.7
2017-03-21T11:13:55.892Z,27.8
2017-03-21T11:15:04.660Z,27.89
2017-03-21T11:16:13.434Z,27.8
2017-03-21T11:17:22.504Z,27.7
2017-03-21T11:18:31.843Z,27.6
2017-03-21T11:19:40.880Z,27.89
2017-03-21T11:20:50.254Z,27.7
2017-03-21T11:21:59.009Z,27.98
2017-03-21T11:23:08.080Z,27.7
2017-03-21T11:24:16.838Z,27.7
2017-03-21T11:25:26.154Z,27.7
2017-03-21T11:26:34.917Z,27.7
2017-03-21T11:27:43.683Z,27.89
2017-03-21T11:28:52.756Z,27.7
2017-03-21T11:30:01.524Z,27.8
2017-03-21T11:31:10.897Z,27.8
2017-03-21T11:32:19.995Z,27.98
2017-03-21T11:33:29.379Z,27.8
2017-03-21T11:34:38.414Z,27.7
2017-03-21T11:35:47.178Z,27.7
2017-03-21T11:36:55.948Z,28.28
2017-03-21T11:38:05.020Z,28.08
2017-03-21T11:39:13.782Z,27.7
2017-03-21T11:40:22.552Z,27.8
2017-03-21T11:41:31.619Z,27.8
2017-03-21T11:42:40.382Z,27.89
2017-03-21T11:43:49.145Z,27.98
2017-03-21T11:44:58.186Z,28.08
2017-03-21T11:46:07.205Z,28.08
2017-03-21T11:47:15.960Z,27.8
2017-03-21T11:48:25.221Z,27.98
2017-03-21T11:49:34.286Z,28.08
2017-03-21T11:50:43.049Z,28.08
2017-03-21T11:51:51.811Z,28.08
2017-03-21T11:53:00.575Z,28.08
2017-03-21T11:54:09.333Z,27.8
2017-03-21T11:55:18.377Z,27.98
2017-03-21T11:56:27.679Z,27.7
2017-03-21T11:57:36.397Z,27.6
2017-03-21T11:58:45.661Z,27.98
2017-03-21T11:59:54.930Z,27.8
2017-03-21T12:01:04.013Z,27.7
2017-03-21T12:02:13.077Z,27.4
2017-03-21T12:03:21.851Z,27.22
2017-03-21T12:04:30.584Z,27.23
2017-03-21T12:05:39.919Z,27.13
2017-03-21T12:06:48.656Z,27.23
2017-03-21T12:07:57.381Z,27.03
2017-03-21T12:09:06.652Z,26.84
2017-03-21T12:10:16.331Z,26.75
2017-03-21T12:11:25.413Z,26.75
2017-03-21T12:12:34.486Z,26.75
2017-03-21T12:13:44.165Z,26.75
2017-03-21T12:14:52.899Z,26.56
2017-03-21T12:16:01.617Z,26.86
2017-03-21T12:17:10.392Z,26.46
2017-03-21T12:18:19.464Z,26.86
2017-03-21T12:19:28.225Z,26.95
2017-03-21T12:20:36.942Z,26.95
2017-03-21T12:21:45.706Z,26.86
2017-03-21T12:22:54.768Z,26.95
2017-03-21T12:24:04.146Z,26.28
2017-03-21T12:25:12.914Z,26.66
2017-03-21T12:26:21.680Z,26.56
2017-03-21T12:27:30.748Z,26.28
2017-03-21T12:28:40.089Z,26.28
2017-03-21T12:29:49.426Z,26.66
2017-03-21T12:30:59.107Z,26.95
2017-03-21T12:32:08.183Z,26.37
2017-03-21T12:33:16.942Z,26.37
2017-03-21T12:34:26.311Z,26.56
2017-03-21T12:35:35.630Z,26.56
2017-03-21T12:36:44.706Z,26.76
2017-03-21T12:37:53.767Z,26.56
2017-03-21T12:39:02.810Z,26.86
2017-03-21T12:40:11.531Z,26.55
2017-03-21T12:41:20.897Z,26.95
2017-03-21T12:42:29.961Z,26.86
2017-03-21T12:43:39.027Z,26.76
2017-03-21T12:44:48.097Z,26.76
2017-03-21T12:45:57.169Z,26.28
2017-03-21T12:47:05.933Z,26.76
2017-03-21T12:48:14.670Z,26.95
2017-03-21T12:49:24.000Z,26.46
2017-03-21T12:50:32.759Z,26.86
2017-03-21T12:51:41.511Z,26.37
2017-03-21T12:52:50.269Z,26.95
2017-03-21T12:53:59.643Z,26.86
2017-03-21T12:55:08.712Z,26.86
2017-03-21T12:56:17.674Z,26.86
2017-03-21T12:57:26.438Z,26.86
2017-03-21T12:58:35.814Z,26.46
2017-03-21T12:59:44.585Z,26.56
2017-03-21T13:00:53.355Z,26.76
2017-03-21T13:02:02.422Z,26.76
2017-03-21T13:03:11.511Z,26.66
2017-03-21T13:04:20.278Z,26.56
2017-03-21T13:05:29.043Z,26.95
2017-03-21T13:06:37.801Z,26.65
2017-03-21T13:07:46.868Z,26.66
2017-03-21T13:08:55.928Z,26.76
2017-03-21T13:10:04.969Z,26.37
2017-03-21T13:11:13.687Z,26.37
2017-03-21T13:12:22.958Z,26.76
2017-03-21T13:13:31.700Z,26.46
2017-03-21T13:14:40.418Z,26.95
2017-03-21T13:15:49.484Z,26.37
2017-03-21T13:16:58.233Z,26.37
2017-03-21T13:18:06.961Z,26.86
2017-03-21T13:19:16.639Z,26.76
2017-03-21T13:20:26.922Z,26.76
2017-03-21T13:21:35.998Z,26.76
2017-03-21T13:22:45.340Z,26.28
2017-03-21T13:23:54.065Z,26.95
2017-03-21T13:25:02.832Z,26.46
2017-03-21T13:26:12.198Z,26.76
2017-03-21T13:27:21.876Z,26.18
2017-03-21T13:28:31.145Z,26.86
2017-03-21T13:29:39.911Z,26.76
2017-03-21T13:30:48.667Z,26.76
2017-03-21T13:31:57.711Z,27.04
2017-03-21T13:33:07.357Z,26.86
2017-03-21T13:34:16.730Z,27.04
2017-03-21T13:35:25.795Z,26.86
2017-03-21T13:36:34.999Z,26.37
2017-03-21T13:37:44.057Z,26.66
2017-03-21T13:38:53.082Z,26.56
2017-03-21T13:40:02.765Z,26.76
2017-03-21T13:41:12.137Z,26.76
2017-03-21T13:42:21.524Z,26.76
2017-03-21T13:43:30.592Z,26.76
2017-03-21T13:44:39.372Z,26.84
2017-03-21T13:45:48.447Z,26.76
2017-03-21T13:46:57.204Z,27.03
2017-03-21T13:48:06.268Z,26.86
2017-03-21T13:49:15.030Z,26.93
2017-03-21T13:50:23.999Z,26.93
2017-03-21T13:51:32.757Z,27.13
2017-03-21T13:52:41.828Z,27.03
2017-03-21T13:53:50.900Z,27.13
2017-03-21T13:54:59.938Z,27.13
2017-03-21T13:56:08.633Z,27.03
2017-03-21T13:57:17.669Z,27.13
2017-03-21T13:58:26.737Z,27.23
2017-03-21T13:59:35.771Z,27.03
2017-03-21T14:00:44.813Z,27.33
2017-03-21T14:01:53.552Z,27.33
2017-03-21T14:03:02.317Z,27.51
2017-03-21T14:04:11.383Z,27.42
2017-03-21T14:05:20.757Z,27.42
2017-03-21T14:06:29.794Z,27.51
2017-03-21T14:07:38.520Z,27.51
2017-03-21T14:08:48.193Z,27.5
2017-03-21T14:09:56.952Z,27.61
2017-03-21T14:11:06.021Z,27.42
2017-03-21T14:12:15.089Z,27.33
2017-03-21T14:13:23.843Z,27.61
2017-03-21T14:14:32.603Z,27.71
2017-03-21T14:15:41.675Z,27.42
2017-03-21T14:16:50.408Z,27.51
2017-03-21T14:17:59.133Z,27.51
2017-03-21T14:19:07.890Z,27.51
2017-03-21T14:20:16.649Z,27.61
2017-03-21T14:21:25.412Z,27.42
2017-03-21T14:22:34.488Z,27.42
2017-03-21T14:23:43.759Z,27.42
2017-03-21T14:24:52.837Z,27.61
2017-03-21T14:26:01.907Z,27.42
2017-03-21T14:27:10.673Z,27.33
2017-03-21T14:28:52.433Z,27.51
2017-03-21T14:30:01.841Z,27.33
2017-03-21T14:31:10.887Z,27.42
2017-03-21T14:32:19.913Z,27.51
2017-03-21T14:33:29.277Z,27.42
2017-03-21T14:34:38.283Z,27.51
2017-03-21T14:35:47.299Z,27.42
2017-03-21T14:36:56.061Z,27.61
2017-03-21T14:38:04.828Z,27.42
2017-03-21T14:39:14.505Z,27.51
2017-03-21T14:40:23.577Z,27.51
2017-03-21T14:41:32.515Z,27.51
2017-03-21T14:42:41.862Z,27.42
2017-03-21T14:43:50.940Z,27.61
2017-03-21T14:45:00.311Z,27.81
2017-03-21T14:46:09.384Z,27.71
2017-03-21T14:47:18.146Z,27.81
2017-03-21T14:48:27.517Z,27.61
2017-03-21T14:49:36.276Z,27.81
2017-03-21T14:50:45.339Z,27.61
2017-03-21T14:51:54.398Z,27.81
2017-03-21T14:53:03.330Z,27.89
2017-03-21T14:54:12.354Z,28
2017-03-21T14:55:21.428Z,27.8
2017-03-21T14:56:30.641Z,28
2017-03-21T14:57:40.022Z,27.7
2017-03-21T14:58:50.008Z,27.7